createdAt,value
2023-01-13T00:01:27.262Z,91197.91
2023-01-13T00:03:54.806Z,91197.91
2023-01-13T00:06:27.745Z,90938.78
2023-01-13T00:08:57.768Z,91197.91
2023-01-13T00:11:26.289Z,91457.03
2023-01-13T00:13:53.913Z,91197.91
2023-01-13T00:16:23.485Z,91197.91
2023-01-13T00:18:51.484Z,90938.78
2023-01-13T00:21:24.145Z,90938.78
2023-01-13T00:23:55.136Z,91197.91
2023-01-13T00:26:25.352Z,90938.78
2023-01-13T00:28:58.055Z,90938.78
2023-01-13T00:31:26.229Z,90938.78
2023-01-13T00:33:58.910Z,90938.78
2023-01-13T00:36:26.763Z,91197.91
2023-01-13T00:38:56.643Z,91197.91
2023-01-13T00:41:26.207Z,91197.91
2023-01-13T00:43:53.648Z,91197.91
2023-01-13T00:46:23.894Z,91457.03
2023-01-13T00:48:52.115Z,91457.03
2023-01-13T00:51:26.339Z,91457.03
2023-01-13T00:53:55.765Z,91197.91
2023-01-13T00:56:39.072Z,91457.03
2023-01-13T00:59:11.126Z,91716.22
2023-01-13T01:01:38.943Z,91716.22
2023-01-13T01:04:06.986Z,91457.03
2023-01-13T01:06:36.400Z,91457.03
2023-01-13T01:09:04.480Z,91716.22
2023-01-13T01:11:33.317Z,91975.41
2023-01-13T01:14:03.076Z,92234.59
2023-01-13T01:16:35.921Z,92234.59
2023-01-13T01:19:03.853Z,92234.59
2023-01-13T01:21:31.994Z,91975.41
2023-01-13T01:24:01.875Z,92234.59
2023-01-13T01:26:32.898Z,92234.59
2023-01-13T01:29:02.156Z,91975.41
2023-01-13T01:31:32.570Z,91975.41
2023-01-13T01:34:00.630Z,91975.41
2023-01-13T01:36:29.930Z,92234.59
2023-01-13T01:38:59.012Z,91716.22
2023-01-13T01:41:29.778Z,91716.22
2023-01-13T01:44:07.346Z,91716.22
2023-01-13T01:46:37.989Z,91716.22
2023-01-13T01:49:26.129Z,91975.41
2023-01-13T01:51:58.557Z,91975.41
2023-01-13T01:54:44.417Z,91716.22
2023-01-13T01:57:22.487Z,91975.41
2023-01-13T01:59:49.951Z,91975.41
2023-01-13T02:02:17.828Z,91716.22
2023-01-13T02:04:51.777Z,91457.03
2023-01-13T02:07:30.296Z,91457.03
2023-01-13T02:10:01.197Z,91457.03
2023-01-13T02:12:32.338Z,91457.03
2023-01-13T02:15:05.913Z,91457.03
2023-01-13T02:17:40.337Z,91197.91
2023-01-13T02:20:57.140Z,90938.78
2023-01-13T02:23:46.179Z,91457.03
2023-01-13T02:26:40.749Z,91197.91
2023-01-13T02:29:44.878Z,91457.03
2023-01-13T02:32:32.383Z,91197.91
2023-01-13T02:35:08.578Z,90938.78
2023-01-13T02:37:39.121Z,90938.78
2023-01-13T02:40:17.213Z,90938.78
2023-01-13T02:43:09.653Z,90679.66
2023-01-13T02:45:42.014Z,90420.56
2023-01-13T02:48:14.796Z,90420.56
2023-01-13T02:50:48.075Z,90161.50
2023-01-13T02:53:18.225Z,89902.44
2023-01-13T02:55:52.761Z,90679.66
2023-01-13T02:58:25.882Z,90420.56
2023-01-13T03:00:53.628Z,90420.56
2023-01-13T03:03:21.211Z,90420.56
2023-01-13T03:05:52.295Z,90420.56
2023-01-13T03:08:28.686Z,90420.56
2023-01-13T03:11:05.978Z,90420.56
2023-01-13T03:13:49.630Z,90420.56
2023-01-13T03:16:33.697Z,90420.56
2023-01-13T03:19:27.873Z,90161.50
2023-01-13T03:22:01.753Z,90161.50
2023-01-13T03:24:47.678Z,90161.50
2023-01-13T03:27:19.995Z,90161.50
2023-01-13T03:29:59.063Z,89902.44
2023-01-13T03:32:57.012Z,89902.44
2023-01-13T03:35:30.838Z,89902.44
2023-01-13T03:38:05.659Z,89902.44
2023-01-13T03:40:39.099Z,89643.41
2023-01-13T03:43:33.025Z,89384.41
2023-01-13T03:46:08.386Z,89643.41
2023-01-13T03:48:39.156Z,89384.41
2023-01-13T03:51:13.425Z,89643.41
2023-01-13T03:53:47.366Z,89902.44
2023-01-13T03:56:24.079Z,89902.44
2023-01-13T03:58:54.019Z,90161.50
2023-01-13T04:01:32.299Z,90420.56
2023-01-13T04:04:07.378Z,90161.50
2023-01-13T04:06:51.778Z,90161.50
2023-01-13T04:09:36.735Z,90420.56
2023-01-13T04:12:13.911Z,90420.56
2023-01-13T04:14:42.278Z,90420.56
2023-01-13T04:17:11.898Z,90420.56
2023-01-13T04:19:41.420Z,90679.66
2023-01-13T04:22:09.033Z,90679.66
2023-01-13T04:24:37.163Z,90420.56
2023-01-13T04:27:04.651Z,90420.56
2023-01-13T04:29:32.069Z,90679.66
2023-01-13T04:31:59.306Z,90679.66
2023-01-13T04:34:28.382Z,90679.66
2023-01-13T04:36:55.853Z,90679.66
2023-01-13T04:39:23.229Z,90679.66
2023-01-13T04:41:58.687Z,90938.78
2023-01-13T04:44:30.401Z,90679.66
2023-01-13T04:46:58.758Z,90679.66
2023-01-13T04:49:25.948Z,90679.66
2023-01-13T04:51:53.741Z,90679.66
2023-01-13T04:54:20.874Z,90420.56
2023-01-13T04:56:48.399Z,90420.56
2023-01-13T04:59:18.227Z,90938.78
2023-01-13T05:01:45.897Z,90938.78
2023-01-13T05:04:15.433Z,90420.56
2023-01-13T05:06:43.015Z,90420.56
2023-01-13T05:09:13.389Z,90679.66
2023-01-13T05:11:59.211Z,90679.66
2023-01-13T05:14:48.615Z,90938.78
2023-01-13T05:17:25.020Z,90679.66
2023-01-13T05:19:52.187Z,90679.66
2023-01-13T05:22:37.972Z,90420.56
2023-01-13T05:25:25.337Z,90420.56
2023-01-13T05:27:57.097Z,90679.66
2023-01-13T05:30:32.757Z,90938.78
2023-01-13T05:33:00.045Z,90938.78
2023-01-13T05:35:29.123Z,89125.41
2023-01-13T05:37:56.704Z,85760.28
2023-01-13T05:40:42.288Z,81623.09
2023-01-13T05:43:19.756Z,79556.34
2023-01-13T05:45:50.077Z,79814.63
2023-01-13T05:48:19.556Z,79556.34
2023-01-13T05:50:49.318Z,79039.88
2023-01-13T05:53:18.317Z,78781.66
2023-01-13T05:55:46.082Z,78523.44
2023-01-13T05:58:15.599Z,78007.13
2023-01-13T06:00:45.524Z,77748.97
2023-01-13T06:03:14.558Z,77490.88
2023-01-13T06:05:42.524Z,77748.97
2023-01-13T06:08:09.880Z,76716.63
2023-01-13T06:10:39.648Z,75426.59
2023-01-13T06:13:07.459Z,75684.56
2023-01-13T06:15:34.808Z,76974.69
2023-01-13T06:18:03.614Z,76974.69
2023-01-13T06:20:36.464Z,76974.69
2023-01-13T06:23:09.703Z,76458.59
2023-01-13T06:25:57.278Z,76200.56
2023-01-13T06:28:24.894Z,76458.59
2023-01-13T06:30:59.701Z,75942.56
2023-01-13T06:33:32.934Z,76200.56
2023-01-13T06:36:15.551Z,76200.56
2023-01-13T06:38:49.150Z,76458.59
2023-01-13T06:41:41.192Z,76716.63
2023-01-13T06:44:08.675Z,77490.88
2023-01-13T06:46:38.433Z,76716.63
2023-01-13T06:49:05.688Z,76200.56
2023-01-13T06:51:34.287Z,75426.59
2023-01-13T06:54:01.428Z,74910.75
2023-01-13T06:56:31.730Z,74652.84
2023-01-13T06:58:59.146Z,74394.94
2023-01-13T07:01:27.756Z,73879.22
2023-01-13T07:03:59.570Z,73879.22
2023-01-13T07:06:27.023Z,74652.84
2023-01-13T07:08:54.854Z,75684.56
2023-01-13T07:11:22.074Z,77490.88
2023-01-13T07:14:08.328Z,77748.97
2023-01-13T07:16:35.789Z,79039.88
2023-01-13T07:19:03.000Z,79556.34
2023-01-13T07:21:30.591Z,80331.25
2023-01-13T07:24:00.658Z,81364.69
2023-01-13T07:26:27.983Z,81623.09
2023-01-13T07:29:00.897Z,82656.94
2023-01-13T07:31:28.103Z,82915.44
2023-01-13T07:33:55.256Z,84208.25
2023-01-13T07:36:22.722Z,84725.53
2023-01-13T07:38:50.065Z,84984.19
2023-01-13T07:41:36.046Z,85242.88
2023-01-13T07:44:07.612Z,86277.78
2023-01-13T07:46:35.041Z,87830.75
2023-01-13T07:49:02.737Z,88089.66
2023-01-13T07:51:32.665Z,87571.88
2023-01-13T07:53:59.810Z,85501.56
2023-01-13T07:56:52.677Z,90420.56
2023-01-13T07:59:20.043Z,97942.03
2023-01-13T08:01:47.345Z,99760.00
2023-01-13T08:04:19.310Z,96125.00
2023-01-13T08:06:46.542Z,94308.94
2023-01-13T08:09:15.941Z,91197.91
2023-01-13T08:11:43.301Z,85242.88
2023-01-13T08:14:12.529Z,81364.69
2023-01-13T08:16:39.925Z,75942.56
2023-01-13T08:19:07.342Z,69756.31
2023-01-13T08:21:34.613Z,63067.16
2023-01-13T08:24:04.157Z,57673.97
2023-01-13T08:26:31.658Z,51242.63
2023-01-13T08:28:59.684Z,46993.16
2023-01-13T08:31:26.864Z,46427.66
2023-01-13T08:33:54.259Z,44859.47
2023-01-13T08:36:25.558Z,42842.88
2023-01-13T08:38:52.955Z,42363.84
2023-01-13T08:41:40.344Z,41731.25
2023-01-13T08:44:09.207Z,41374.13
2023-01-13T08:46:37.543Z,40917.25
2023-01-13T08:49:07.778Z,40879.34
2023-01-13T08:51:37.641Z,40997.06
2023-01-13T08:54:04.991Z,40805.53
2023-01-13T08:56:35.310Z,40775.63
2023-01-13T08:59:06.051Z,40839.44
2023-01-13T09:01:34.081Z,40903.28
2023-01-13T09:04:02.782Z,40420.56
2023-01-13T09:06:32.740Z,40197.19
2023-01-13T09:09:00.799Z,40149.31
2023-01-13T09:11:55.989Z,40235.06
2023-01-13T09:14:24.921Z,40330.81
2023-01-13T09:16:54.806Z,40560.19
2023-01-13T09:19:22.178Z,40835.47
2023-01-13T09:21:50.026Z,41104.78
2023-01-13T09:24:20.144Z,41404.03
2023-01-13T09:26:47.999Z,41653.44
2023-01-13T09:29:16.157Z,41677.38
2023-01-13T09:31:46.041Z,41813.06
2023-01-13T09:34:38.063Z,42076.47
2023-01-13T09:37:08.537Z,42170.28
2023-01-13T09:39:39.770Z,42162.28
2023-01-13T09:42:35.128Z,42166.28
2023-01-13T09:45:09.135Z,42565.44
2023-01-13T09:48:02.145Z,42447.69
2023-01-13T09:50:50.940Z,42405.78
2023-01-13T09:53:27.883Z,42379.81
2023-01-13T09:55:55.760Z,42172.28
2023-01-13T09:58:25.642Z,42170.28
2023-01-13T10:00:55.918Z,42315.97
2023-01-13T10:03:30.092Z,42363.84
2023-01-13T10:06:51.547Z,42643.28
2023-01-13T10:09:24.401Z,42916.72
2023-01-13T10:12:15.617Z,42846.88
2023-01-13T10:15:03.131Z,42164.28
2023-01-13T10:17:43.517Z,41555.69
2023-01-13T10:20:31.330Z,42559.44
2023-01-13T10:23:23.302Z,42447.69
2023-01-13T10:25:50.457Z,43070.44
2023-01-13T10:28:23.943Z,42790.97
2023-01-13T10:30:51.246Z,42848.84
2023-01-13T10:33:27.716Z,43236.09
2023-01-13T10:36:02.691Z,43044.47
2023-01-13T10:38:37.200Z,43365.88
2023-01-13T10:41:19.927Z,43647.38
2023-01-13T10:44:15.677Z,44563.88
2023-01-13T10:46:59.701Z,45606.50
2023-01-13T10:49:39.507Z,46193.88
2023-01-13T10:52:26.019Z,45798.28
2023-01-13T10:54:54.952Z,46313.75
2023-01-13T10:57:38.933Z,46489.59
2023-01-13T11:00:32.991Z,47320.94
2023-01-13T11:03:20.471Z,48638.34
2023-01-13T11:06:07.547Z,48472.38
2023-01-13T11:08:46.181Z,48584.34
2023-01-13T11:11:47.412Z,48098.53
2023-01-13T11:14:35.266Z,48752.31
2023-01-13T11:17:28.351Z,50702.41
2023-01-13T11:20:05.201Z,53302.28
2023-01-13T11:22:37.645Z,54846.38
2023-01-13T11:25:12.194Z,56647.66
2023-01-13T11:28:06.800Z,58700.59
2023-01-13T11:30:50.681Z,60497.91
2023-01-13T11:33:27.343Z,60241.09
2023-01-13T11:36:11.028Z,60754.75
2023-01-13T11:38:50.950Z,64609.66
2023-01-13T11:41:27.705Z,66152.84
2023-01-13T11:44:10.059Z,64352.53
2023-01-13T11:46:37.907Z,63838.31
2023-01-13T11:49:05.476Z,63838.31
2023-01-13T11:51:34.798Z,64095.41
2023-01-13T11:54:10.749Z,63838.31
2023-01-13T11:56:59.222Z,63838.31
2023-01-13T11:59:47.846Z,64095.41
2023-01-13T12:02:36.591Z,63838.31
2023-01-13T12:05:35.924Z,63838.31
2023-01-13T12:08:20.732Z,64609.66
2023-01-13T12:10:58.922Z,65123.97
2023-01-13T12:13:54.071Z,65381.16
2023-01-13T12:16:30.383Z,66410.09
2023-01-13T12:19:07.692Z,66667.38
2023-01-13T12:21:50.093Z,66667.38
2023-01-13T12:24:26.077Z,66924.69
2023-01-13T12:27:01.677Z,68211.50
2023-01-13T12:29:37.686Z,68726.38
2023-01-13T12:32:13.898Z,69241.31
2023-01-13T12:35:14.653Z,70271.41
2023-01-13T12:37:45.328Z,71044.19
2023-01-13T12:40:30.454Z,71301.84
2023-01-13T12:43:34.937Z,71301.84
2023-01-13T12:46:21.088Z,71301.84
2023-01-13T12:48:54.641Z,71817.16
2023-01-13T12:51:56.918Z,72332.56
2023-01-13T12:54:39.413Z,71301.84
2023-01-13T12:57:19.022Z,68211.50
2023-01-13T13:00:06.376Z,68726.38
2023-01-13T13:02:39.239Z,69498.81
2023-01-13T13:05:15.828Z,70013.84
2023-01-13T13:07:49.522Z,69241.31
2023-01-13T13:10:42.969Z,68983.81
2023-01-13T13:13:42.811Z,68726.38
2023-01-13T13:16:30.484Z,68983.81
2023-01-13T13:19:21.229Z,68468.91
2023-01-13T13:22:17.258Z,69241.31
2023-01-13T13:24:57.579Z,69241.31
2023-01-13T13:27:31.883Z,68726.38
2023-01-13T13:30:02.060Z,68468.91
2023-01-13T13:32:50.607Z,68983.81
2023-01-13T13:35:53.915Z,68468.91
2023-01-13T13:38:54.645Z,68983.81
2023-01-13T13:41:43.407Z,69241.31
2023-01-13T13:44:38.468Z,69498.81
2023-01-13T13:47:07.553Z,70786.59
2023-01-13T13:49:45.591Z,69756.31
2023-01-13T13:52:37.785Z,69498.81
2023-01-13T13:55:21.145Z,69241.31
2023-01-13T13:57:52.958Z,69241.31
2023-01-13T14:00:29.594Z,68726.38
2023-01-13T14:02:59.137Z,68726.38
2023-01-13T14:05:32.726Z,68983.81
2023-01-13T14:08:18.175Z,69241.31
2023-01-13T14:10:46.510Z,68468.91
2023-01-13T14:13:20.046Z,68726.38
2023-01-13T14:15:50.369Z,68468.91
2023-01-13T14:18:21.317Z,69498.81
2023-01-13T14:21:05.356Z,69756.31
2023-01-13T14:23:33.685Z,69756.31
2023-01-13T14:26:08.575Z,69756.31
2023-01-13T14:28:38.733Z,69756.31
2023-01-13T14:31:08.515Z,70786.59
2023-01-13T14:33:51.040Z,70013.84
2023-01-13T14:36:28.463Z,70786.59
2023-01-13T14:39:07.295Z,71301.84
2023-01-13T14:41:37.895Z,70786.59
2023-01-13T14:44:25.979Z,70013.84
2023-01-13T14:46:56.556Z,69241.31
2023-01-13T14:49:43.571Z,68983.81
2023-01-13T14:52:19.765Z,68983.81
2023-01-13T14:55:15.590Z,68726.38
2023-01-13T14:57:43.192Z,68468.91
2023-01-13T15:00:22.127Z,68211.50
2023-01-13T15:03:09.982Z,68211.50
2023-01-13T15:05:39.058Z,68211.50
2023-01-13T15:08:06.471Z,68211.50
2023-01-13T15:10:41.662Z,67954.09
2023-01-13T15:13:26.338Z,67954.09
2023-01-13T15:15:56.915Z,67954.09
2023-01-13T15:18:24.302Z,67696.72
2023-01-13T15:20:54.043Z,67439.34
2023-01-13T15:23:24.619Z,67439.34
2023-01-13T15:25:51.959Z,67439.34
2023-01-13T15:28:26.371Z,67954.09
2023-01-13T15:31:01.789Z,66667.38
2023-01-13T15:33:29.082Z,67439.34
2023-01-13T15:35:56.443Z,67182.00
2023-01-13T15:38:24.644Z,67182.00
2023-01-13T15:40:54.812Z,66410.09
2023-01-13T15:43:42.775Z,66410.09
2023-01-13T15:46:32.381Z,66667.38
2023-01-13T15:49:09.837Z,66152.84
2023-01-13T15:51:37.229Z,66152.84
2023-01-13T15:54:04.598Z,65895.59
2023-01-13T15:56:36.083Z,66152.84
2023-01-13T15:59:04.697Z,65895.59
2023-01-13T16:01:34.184Z,65638.38
2023-01-13T16:04:02.720Z,65381.16
2023-01-13T16:06:35.973Z,65381.16
2023-01-13T16:09:06.609Z,64866.81
2023-01-13T16:11:34.394Z,64609.66
2023-01-13T16:14:01.625Z,64352.53
2023-01-13T16:16:29.825Z,64609.66
2023-01-13T16:18:59.727Z,64866.81
2023-01-13T16:21:26.900Z,65123.97
2023-01-13T16:23:54.294Z,64609.66
2023-01-13T16:26:29.169Z,65123.97
2023-01-13T16:28:58.533Z,66152.84
2023-01-13T16:31:31.920Z,66924.69
2023-01-13T16:34:00.981Z,67696.72
2023-01-13T16:36:37.620Z,68468.91
2023-01-13T16:39:20.696Z,68726.38
2023-01-13T16:41:50.569Z,68983.81
2023-01-13T16:44:20.747Z,68983.81
2023-01-13T16:46:49.342Z,69241.31
2023-01-13T16:49:17.764Z,69756.31
2023-01-13T16:51:45.164Z,69756.31
2023-01-13T16:54:12.631Z,69756.31
2023-01-13T16:56:40.025Z,70271.41
2023-01-13T16:59:14.217Z,70528.97
2023-01-13T17:01:43.530Z,71044.19
2023-01-13T17:04:17.729Z,71301.84
2023-01-13T17:07:06.692Z,71301.84
2023-01-13T17:09:34.296Z,71559.47
2023-01-13T17:12:02.511Z,71817.16
2023-01-13T17:14:31.244Z,71817.16
2023-01-13T17:17:00.904Z,71817.16
2023-01-13T17:19:30.360Z,72074.84
2023-01-13T17:21:59.831Z,72332.56
2023-01-13T17:24:29.347Z,72848.03
2023-01-13T17:26:57.480Z,73621.41
2023-01-13T17:29:26.512Z,74394.94
2023-01-13T17:31:53.968Z,74652.84
2023-01-13T17:34:21.625Z,74910.75
2023-01-13T17:36:49.434Z,74652.84
2023-01-13T17:39:22.170Z,74910.75
2023-01-13T17:41:50.447Z,75168.66
2023-01-13T17:44:20.025Z,74910.75
2023-01-13T17:46:47.774Z,74910.75
2023-01-13T17:49:17.603Z,75168.66
2023-01-13T17:51:48.460Z,75168.66
2023-01-13T17:54:15.923Z,75168.66
2023-01-13T17:56:43.989Z,75684.56
2023-01-13T17:59:12.955Z,75684.56
2023-01-13T18:01:41.096Z,75426.59
2023-01-13T18:04:15.029Z,75426.59
2023-01-13T18:06:42.611Z,75426.59
2023-01-13T18:09:10.224Z,75942.56
2023-01-13T18:11:37.580Z,76200.56
2023-01-13T18:14:08.119Z,76200.56
2023-01-13T18:16:41.509Z,76200.56
2023-01-13T18:19:28.778Z,76458.59
2023-01-13T18:22:20.098Z,76716.63
2023-01-13T18:25:06.389Z,76716.63
2023-01-13T18:27:38.461Z,76458.59
2023-01-13T18:30:07.029Z,76200.56
2023-01-13T18:32:34.825Z,76458.59
2023-01-13T18:35:06.503Z,76200.56
2023-01-13T18:37:38.793Z,75942.56
2023-01-13T18:40:11.417Z,75942.56
2023-01-13T18:42:52.101Z,75942.56
2023-01-13T18:45:26.249Z,76200.56
2023-01-13T18:47:55.573Z,76200.56
2023-01-13T18:50:25.827Z,76716.63
2023-01-13T18:52:54.432Z,76974.69
2023-01-13T18:55:22.421Z,77490.88
2023-01-13T18:57:51.147Z,77490.88
2023-01-13T19:00:20.308Z,77232.75
2023-01-13T19:02:50.511Z,77232.75
2023-01-13T19:05:18.112Z,77232.75
2023-01-13T19:07:50.705Z,76974.69
2023-01-13T19:10:18.594Z,76974.69
2023-01-13T19:12:48.448Z,76974.69
2023-01-13T19:15:16.259Z,76974.69
2023-01-13T19:17:46.673Z,77490.88
2023-01-13T19:20:14.047Z,77490.88
2023-01-13T19:22:43.571Z,77232.75
2023-01-13T19:25:10.905Z,77232.75
2023-01-13T19:27:39.709Z,76974.69
2023-01-13T19:30:09.926Z,76716.63
2023-01-13T19:32:39.381Z,76974.69
2023-01-13T19:35:07.288Z,77232.75
2023-01-13T19:37:36.713Z,77232.75
2023-01-13T19:40:09.138Z,77232.75
2023-01-13T19:42:57.060Z,76974.69
2023-01-13T19:45:27.069Z,76974.69
2023-01-13T19:48:01.720Z,76716.63
2023-01-13T19:50:29.221Z,76974.69
2023-01-13T19:52:58.952Z,76974.69
2023-01-13T19:55:26.311Z,77490.88
2023-01-13T19:57:53.587Z,77490.88
2023-01-13T20:00:21.885Z,77490.88
2023-01-13T20:02:51.899Z,77490.88
2023-01-13T20:05:22.373Z,77748.97
2023-01-13T20:07:52.817Z,77748.97
2023-01-13T20:10:21.455Z,77748.97
2023-01-13T20:12:48.627Z,77748.97
2023-01-13T20:15:16.143Z,78265.28
2023-01-13T20:17:43.306Z,78265.28
2023-01-13T20:20:11.840Z,78265.28
2023-01-13T20:22:46.293Z,78007.13
2023-01-13T20:25:17.538Z,78007.13
2023-01-13T20:27:48.680Z,77748.97
2023-01-13T20:30:18.193Z,77748.97
2023-01-13T20:32:45.595Z,77490.88
2023-01-13T20:35:13.157Z,76974.69
2023-01-13T20:38:07.246Z,77232.75
2023-01-13T20:40:34.566Z,77232.75
2023-01-13T20:43:01.887Z,76974.69
2023-01-13T20:45:31.971Z,76974.69
2023-01-13T20:47:59.191Z,76974.69
2023-01-13T20:50:26.451Z,76974.69
2023-01-13T20:52:57.147Z,76974.69
2023-01-13T20:55:24.279Z,76716.63
2023-01-13T20:57:51.766Z,76716.63
2023-01-13T21:00:21.485Z,76458.59
2023-01-13T21:02:50.999Z,76200.56
2023-01-13T21:05:18.344Z,76458.59
2023-01-13T21:07:45.628Z,76200.56
2023-01-13T21:10:12.974Z,75942.56
2023-01-13T21:13:01.291Z,76200.56
2023-01-13T21:15:28.643Z,75942.56
2023-01-13T21:18:14.942Z,75942.56
2023-01-13T21:20:42.098Z,75684.56
2023-01-13T21:23:10.838Z,75684.56
2023-01-13T21:25:40.608Z,75426.59
2023-01-13T21:28:11.229Z,75426.59
2023-01-13T21:30:41.121Z,75942.56
2023-01-13T21:33:13.489Z,75942.56
2023-01-13T21:35:41.432Z,76200.56
2023-01-13T21:38:10.457Z,76458.59
2023-01-13T21:40:37.866Z,76200.56
2023-01-13T21:43:30.521Z,76200.56
2023-01-13T21:46:16.319Z,76200.56
2023-01-13T21:48:43.534Z,76200.56
2023-01-13T21:51:10.657Z,76458.59
2023-01-13T21:53:40.313Z,76200.56
2023-01-13T21:56:07.703Z,76200.56
2023-01-13T21:58:35.013Z,76458.59
2023-01-13T22:01:05.309Z,76200.56
2023-01-13T22:03:51.216Z,76716.63
2023-01-13T22:06:18.488Z,76458.59
2023-01-13T22:08:45.721Z,76458.59
2023-01-13T22:11:15.257Z,76458.59
2023-01-13T22:14:01.126Z,76200.56
2023-01-13T22:16:28.439Z,75942.56
2023-01-13T22:18:57.916Z,75426.59
2023-01-13T22:21:25.005Z,75168.66
2023-01-13T22:23:52.401Z,75168.66
2023-01-13T22:26:19.500Z,74652.84
2023-01-13T22:28:46.792Z,74394.94
2023-01-13T22:31:20.992Z,74652.84
2023-01-13T22:33:54.115Z,74652.84
2023-01-13T22:36:24.506Z,74910.75
2023-01-13T22:38:56.352Z,74910.75
2023-01-13T22:41:23.822Z,74910.75
2023-01-13T22:43:51.796Z,74910.75
2023-01-13T22:46:19.526Z,74910.75
2023-01-13T22:48:48.316Z,74652.84
2023-01-13T22:51:18.635Z,74394.94
2023-01-13T22:53:47.098Z,74652.84
2023-01-13T22:56:19.329Z,74910.75
2023-01-13T22:58:57.152Z,74910.75
2023-01-13T23:01:29.849Z,74910.75
2023-01-13T23:03:57.440Z,74652.84
2023-01-13T23:06:28.423Z,74652.84
2023-01-13T23:08:55.891Z,74910.75
2023-01-13T23:11:28.180Z,74652.84
2023-01-13T23:14:00.145Z,74652.84
2023-01-13T23:16:29.434Z,74910.75
2023-01-13T23:18:57.095Z,74652.84
2023-01-13T23:21:27.714Z,74652.84
2023-01-13T23:23:58.651Z,74652.84
2023-01-13T23:26:27.526Z,74394.94
2023-01-13T23:29:02.465Z,74394.94
2023-01-13T23:31:30.150Z,74137.09
2023-01-13T23:33:57.438Z,74394.94
2023-01-13T23:36:27.134Z,74652.84
2023-01-13T23:38:55.173Z,74394.94
2023-01-13T23:41:24.662Z,74137.09
2023-01-13T23:43:57.767Z,74394.94
2023-01-13T23:46:25.403Z,74394.94
2023-01-13T23:48:53.150Z,75426.59
2023-01-13T23:51:23.184Z,74910.75
2023-01-13T23:53:50.969Z,74394.94
2023-01-13T23:56:23.842Z,74394.94
2023-01-13T23:58:51.489Z,74652.84
